Time;durP1;ratioP1;P1;durP2;ratioP2;P2;SDS_P1;SDS_P2;PMS_P1;PMS_P2;Temp;Humidity;BMP_temperature;BMP_pressure;BME280_temperature;BME280_humidity;BME280_pressure;Samples;Min_cycle;Max_cycle;Signal;HPM_P1;HPM_P2
2022/10/18 00:01:12;;;;;;;13.30;5.00;;;;;;;12.35;100.00;97220.41;5020615;28;20036;-79
2022/10/18 00:03:38;;;;;;;10.73;4.40;;;;;;;12.35;100.00;97230.97;4990307;28;20086;-79
2022/10/18 00:06:06;;;;;;;13.10;4.47;;;;;;;12.37;100.00;97223.72;5008641;28;20041;-79
2022/10/18 00:08:32;;;;;;;15.50;4.43;;;;;;;12.34;100.00;97225.81;5001162;28;20047;-80
2022/10/18 00:10:57;;;;;;;12.80;4.70;;;;;;;12.26;100.00;97216.81;4991054;28;20024;-79
2022/10/18 00:13:23;;;;;;;13.17;5.23;;;;;;;12.25;100.00;97224.91;4993703;28;20036;-79
2022/10/18 00:15:51;;;;;;;12.10;4.67;;;;;;;12.26;100.00;97221.28;4991185;28;20111;-79
2022/10/18 00:18:17;;;;;;;9.57;4.20;;;;;;;12.27;100.00;97215.00;4989931;28;20064;-81
2022/10/18 00:20:43;;;;;;;10.63;4.30;;;;;;;12.24;100.00;97216.16;4992428;28;20119;-79
2022/10/18 00:23:08;;;;;;;9.67;4.43;;;;;;;12.25;100.00;97215.16;4992976;28;20505;-79
2022/10/18 00:25:36;;;;;;;11.23;4.77;;;;;;;12.23;100.00;97217.09;5002127;28;20056;-79
2022/10/18 00:28:02;;;;;;;10.40;4.30;;;;;;;12.25;100.00;97220.44;5032818;28;20443;-78
2022/10/18 00:30:27;;;;;;;11.67;3.73;;;;;;;12.25;100.00;97215.16;5050971;28;20037;-78
2022/10/18 00:32:53;;;;;;;12.10;4.57;;;;;;;12.31;100.00;97216.41;5049865;28;20041;-79
2022/10/18 00:35:20;;;;;;;9.43;4.00;;;;;;;12.33;100.00;97217.06;5061551;28;20032;-78
2022/10/18 00:37:45;;;;;;;14.67;4.40;;;;;;;12.34;100.00;97216.13;5066910;28;20111;-78
2022/10/18 00:40:11;;;;;;;9.60;4.40;;;;;;;12.32;100.00;97210.13;5048247;28;20451;-79
2022/10/18 00:42:39;;;;;;;13.37;4.40;;;;;;;12.35;100.00;97215.13;5068001;28;20028;-79
2022/10/18 00:45:15;;;;;;;10.03;4.33;;;;;;;12.30;100.00;97211.25;5062029;28;20090;-78
2022/10/18 00:47:48;;;;;;;11.23;4.80;;;;;;;12.40;100.00;97212.88;5066392;28;20039;-79
2022/10/18 00:50:13;;;;;;;5.63;3.60;;;;;;;12.45;100.00;97210.63;5066660;28;20126;-79
2022/10/18 00:52:46;;;;;;;10.30;4.27;;;;;;;12.45;100.00;97210.63;5049318;28;20880;-79
2022/10/18 00:55:12;;;;;;;8.52;4.20;;;;;;;12.42;100.00;97204.81;5060930;28;20032;-78
2022/10/18 00:57:41;;;;;;;11.23;5.23;;;;;;;12.41;100.00;97206.63;5064772;28;20040;-78
2022/10/18 01:00:08;;;;;;;10.83;4.90;;;;;;;12.47;100.00;97205.19;5047804;28;20799;-79
2022/10/18 01:02:38;;;;;;;9.23;4.27;;;;;;;12.41;100.00;97204.00;5047461;28;20044;-80
2022/10/18 01:05:04;;;;;;;9.80;4.20;;;;;;;12.42;100.00;97207.47;5047752;28;20035;-78
2022/10/18 01:07:55;;;;;;;11.07;4.13;;;;;;;12.43;100.00;97207.31;5042213;28;20037;-78
2022/10/18 01:10:23;;;;;;;15.20;4.67;;;;;;;12.48;100.00;97199.78;5061352;28;20056;-78
2022/10/18 01:12:58;;;;;;;9.23;4.13;;;;;;;12.50;100.00;97207.53;5045124;28;20499;-79
2022/10/18 01:15:30;;;;;;;10.70;4.43;;;;;;;12.49;100.00;97205.91;5053542;28;20042;-79
2022/10/18 01:18:14;;;;;;;15.67;4.40;;;;;;;12.48;100.00;97199.78;5044484;28;20089;-79
2022/10/18 01:21:01;;;;;;;8.83;4.17;;;;;;;12.47;100.00;97200.78;5049344;28;20071;-79
2022/10/18 01:23:45;;;;;;;13.40;4.23;;;;;;;12.43;100.00;97199.38;5061940;28;20048;-79
2022/10/18 01:26:20;;;;;;;8.57;4.23;;;;;;;12.38;100.00;97206.09;5047689;28;20119;-78
2022/10/18 01:29:17;;;;;;;12.87;4.40;;;;;;;12.29;100.00;97209.59;5066920;28;20047;-78
2022/10/18 01:31:49;;;;;;;11.93;4.53;;;;;;;12.31;100.00;97203.22;5067434;28;20048;-78
2022/10/18 01:34:17;;;;;;;9.23;4.67;;;;;;;12.30;100.00;97203.34;5064430;28;20032;-78
2022/10/18 01:36:47;;;;;;;10.50;5.03;;;;;;;12.15;100.00;97206.47;5065632;28;20108;-78
2022/10/18 01:39:19;;;;;;;8.20;4.67;;;;;;;12.17;100.00;97206.31;5067836;28;20458;-79
2022/10/18 01:41:48;;;;;;;11.53;4.83;;;;;;;12.14;100.00;97207.47;5068921;28;20043;-78
2022/10/18 01:44:21;;;;;;;16.40;6.03;;;;;;;12.18;100.00;97202.72;5070047;28;20056;-78
2022/10/18 01:46:48;;;;;;;12.07;5.13;;;;;;;12.17;100.00;97207.16;5069526;28;20029;-78
2022/10/18 01:49:14;;;;;;;14.03;5.30;;;;;;;12.10;100.00;97210.50;5050710;28;20814;-78
2022/10/18 01:51:39;;;;;;;9.50;5.27;;;;;;;12.06;100.00;97209.97;5067511;28;20025;-79
2022/10/18 01:54:05;;;;;;;15.00;5.67;;;;;;;12.11;100.00;97209.56;5053384;28;20032;-78
2022/10/18 01:56:37;;;;;;;11.57;4.77;;;;;;;12.15;100.00;97208.28;5069229;28;20040;-79
2022/10/18 01:59:10;;;;;;;10.73;5.63;;;;;;;12.20;100.00;97206.84;5067596;28;20143;-79
2022/10/18 02:01:56;;;;;;;10.53;5.10;;;;;;;12.22;100.00;97214.63;5055346;28;20031;-78
2022/10/18 02:04:27;;;;;;;8.50;4.90;;;;;;;12.24;100.00;97199.50;5069573;28;20464;-79
2022/10/18 02:07:02;;;;;;;12.13;5.03;;;;;;;12.26;100.00;97206.28;5072959;28;20037;-79
2022/10/18 02:09:50;;;;;;;12.07;5.00;;;;;;;12.31;100.00;97205.84;5061357;28;20110;-78
2022/10/18 02:12:17;;;;;;;10.87;4.67;;;;;;;12.36;100.00;97200.94;5056795;28;20487;-79
2022/10/18 02:14:44;;;;;;;8.87;4.43;;;;;;;12.39;100.00;97194.56;5055589;28;20395;-78
2022/10/18 02:17:11;;;;;;;9.87;4.43;;;;;;;12.45;100.00;97199.25;5050144;28;20380;-78
2022/10/18 02:19:42;;;;;;;12.60;4.87;;;;;;;12.45;100.00;97193.97;5052898;28;20098;-79
2022/10/18 02:22:11;;;;;;;10.77;5.00;;;;;;;12.50;100.00;97195.19;5077262;28;20040;-78
2022/10/18 02:24:43;;;;;;;13.37;6.27;;;;;;;12.47;100.00;97192.88;5072569;28;20044;-78
2022/10/18 02:27:09;;;;;;;14.20;5.30;;;;;;;12.49;100.00;97190.88;5070494;28;20037;-78
2022/10/18 02:29:35;;;;;;;11.93;5.53;;;;;;;12.53;100.00;97187.97;5071568;28;20072;-80
2022/10/18 02:32:09;;;;;;;10.10;4.37;;;;;;;12.48;100.00;97189.25;5053710;28;20120;-78
2022/10/18 02:34:40;;;;;;;9.20;5.03;;;;;;;12.49;100.00;97182.16;5071738;28;20071;-78
2022/10/18 02:37:07;;;;;;;12.50;5.50;;;;;;;12.51;100.00;97182.84;5071033;28;20024;-78
2022/10/18 02:39:35;;;;;;;13.60;5.67;;;;;;;12.53;100.00;97182.69;5071237;28;20541;-78
2022/10/18 02:42:06;;;;;;;11.40;5.23;;;;;;;12.58;100.00;97180.44;5070522;28;20028;-80
2022/10/18 02:44:37;;;;;;;13.87;5.40;;;;;;;12.61;100.00;97178.34;5054769;28;20029;-79
2022/10/18 02:47:04;;;;;;;8.60;5.37;;;;;;;12.62;100.00;97173.88;5070197;28;20111;-78
2022/10/18 02:49:30;;;;;;;11.23;5.33;;;;;;;12.67;100.00;97171.59;5070215;28;20090;-80
2022/10/18 02:51:56;;;;;;;19.33;5.10;;;;;;;12.64;100.00;97171.91;5069663;28;20020;-79
2022/10/18 02:54:22;;;;;;;10.07;5.23;;;;;;;12.68;100.00;97168.84;5065900;28;20051;-79
2022/10/18 02:56:48;;;;;;;10.63;5.07;;;;;;;12.72;100.00;97172.84;5063011;28;20025;-78
2022/10/18 02:59:14;;;;;;;12.83;5.50;;;;;;;12.79;100.00;97166.97;5057431;28;20562;-79
2022/10/18 03:01:40;;;;;;;9.43;4.70;;;;;;;12.82;100.00;97171.94;5061938;28;20407;-80
2022/10/18 03:04:05;;;;;;;13.27;4.77;;;;;;;12.87;100.00;97173.13;5066418;28;20060;-78
2022/10/18 03:06:32;;;;;;;9.87;4.70;;;;;;;12.92;100.00;97170.06;5067443;28;20066;-78
2022/10/18 03:08:57;;;;;;;11.40;4.60;;;;;;;12.92;100.00;97173.53;5050232;28;20037;-78
2022/10/18 03:11:23;;;;;;;13.07;5.37;;;;;;;12.94;100.00;97171.56;5065470;28;20446;-78
2022/10/18 03:13:51;;;;;;;7.50;4.57;;;;;;;12.97;100.00;97171.25;5067601;28;20036;-79
2022/10/18 03:16:17;;;;;;;12.50;5.17;;;;;;;13.04;100.00;97173.28;5067361;28;20086;-78
2022/10/18 03:18:43;;;;;;;12.20;5.17;;;;;;;13.10;100.00;97164.75;5047025;28;20433;-78
2022/10/18 03:21:09;;;;;;;12.77;5.07;;;;;;;13.12;100.00;97163.63;5048251;28;20032;-78
2022/10/18 03:23:35;;;;;;;7.50;4.10;;;;;;;13.15;100.00;97165.16;5069611;28;20033;-78
2022/10/18 03:26:00;;;;;;;11.50;4.47;;;;;;;13.17;100.00;97158.72;5067125;28;20028;-79
2022/10/18 03:28:27;;;;;;;12.30;5.67;;;;;;;13.19;100.00;97169.13;5053291;28;20122;-78
2022/10/18 03:30:52;;;;;;;15.03;5.33;;;;;;;13.25;100.00;97165.09;5067772;28;20483;-79
2022/10/18 03:33:18;;;;;;;10.43;4.73;;;;;;;13.21;100.00;97162.72;5067965;28;20040;-79
2022/10/18 03:35:44;;;;;;;10.07;4.70;;;;;;;13.18;100.00;97165.66;5067882;28;20078;-79
2022/10/18 03:38:09;;;;;;;13.23;5.07;;;;;;;13.15;100.00;97165.97;5053676;28;20441;-78
2022/10/18 03:40:36;;;;;;;13.27;4.60;;;;;;;13.15;100.00;97162.50;5066922;28;20074;-78
2022/10/18 03:43:02;;;;;;;13.77;5.63;;;;;;;13.22;100.00;97160.91;5068764;28;20394;-78
2022/10/18 03:45:31;;;;;;;10.43;5.20;;;;;;;13.25;100.00;97165.09;5067118;28;20048;-78
2022/10/18 03:47:56;;;;;;;12.83;5.20;;;;;;;13.27;100.00;97166.59;5049405;28;20110;-79
2022/10/18 03:50:22;;;;;;;12.67;6.10;;;;;;;13.28;100.00;97164.75;5044552;28;20068;-78
2022/10/18 03:52:48;;;;;;;12.57;7.70;;;;;;;13.25;100.00;97165.91;5042765;28;20056;-78
2022/10/18 03:55:14;;;;;;;12.73;6.30;;;;;;;13.28;100.00;97165.63;5064928;28;20391;-78
2022/10/18 03:57:39;;;;;;;12.27;4.93;;;;;;;13.40;100.00;97152.97;5067061;28;20025;-78
2022/10/18 04:00:06;;;;;;;12.67;5.37;;;;;;;13.36;100.00;97168.31;5046420;28;20057;-79
2022/10/18 04:02:37;;;;;;;11.13;4.97;;;;;;;13.21;100.00;97169.78;5065125;28;20518;-78
2022/10/18 04:05:06;;;;;;;12.53;5.63;;;;;;;13.24;100.00;97168.66;5066715;28;20033;-78
2022/10/18 04:07:33;;;;;;;14.50;5.10;;;;;;;13.28;100.00;97172.69;5063726;28;20036;-79
2022/10/18 04:09:59;;;;;;;10.80;6.57;;;;;;;13.26;100.00;97172.84;5047719;28;20107;-78
2022/10/18 04:12:24;;;;;;;23.63;17.93;;;;;;;13.28;100.00;97170.03;5067987;28;20107;-80
2022/10/18 04:14:50;;;;;;;19.23;13.80;;;;;;;13.28;100.00;97173.53;5066704;28;20120;-78
2022/10/18 04:17:16;;;;;;;10.70;6.60;;;;;;;13.27;100.00;97174.50;5063696;28;20032;-79
2022/10/18 04:19:42;;;;;;;10.43;5.10;;;;;;;13.27;100.00;97177.16;5050564;28;20067;-80
2022/10/18 04:22:09;;;;;;;11.13;5.97;;;;;;;13.27;100.00;97182.44;5050557;28;20032;-80
2022/10/18 04:24:34;;;;;;;10.30;6.30;;;;;;;13.31;100.00;97178.53;5067759;28;20059;-79
2022/10/18 04:27:00;;;;;;;9.47;5.33;;;;;;;13.29;100.00;97182.28;5049078;28;20659;-79
2022/10/18 04:29:26;;;;;;;11.63;5.90;;;;;;;13.29;100.00;97177.00;5067887;28;20031;-79
2022/10/18 04:31:51;;;;;;;12.47;6.00;;;;;;;13.37;100.00;97169.97;5067003;28;20054;-80
2022/10/18 04:34:18;;;;;;;10.40;6.00;;;;;;;13.46;100.00;97170.03;5066993;28;20438;-79
2022/10/18 04:36:43;;;;;;;10.03;6.07;;;;;;;13.49;100.00;97167.09;5066210;28;20024;-79
2022/10/18 04:39:09;;;;;;;9.00;5.40;;;;;;;13.49;100.00;97170.56;5060437;28;20040;-79
2022/10/18 04:41:35;;;;;;;10.47;5.47;;;;;;;13.46;100.00;97172.69;5066264;28;20040;-79
2022/10/18 04:44:00;;;;;;;12.03;5.57;;;;;;;13.46;100.00;97178.78;5050375;28;20032;-79
2022/10/18 04:46:26;;;;;;;10.67;5.37;;;;;;;13.50;100.00;97176.66;5068082;28;20044;-78
2022/10/18 04:48:53;;;;;;;11.70;5.57;;;;;;;13.39;100.00;97178.56;5063750;28;20028;-79
2022/10/18 04:51:19;;;;;;;9.57;5.43;;;;;;;13.39;100.00;97177.75;5066605;28;20033;-79
2022/10/18 04:53:45;;;;;;;9.27;5.33;;;;;;;13.36;100.00;97184.16;5047685;28;20025;-79
2022/10/18 04:56:11;;;;;;;8.87;6.03;;;;;;;13.36;100.00;97173.59;5061203;28;20037;-80
2022/10/18 04:58:36;;;;;;;12.80;6.20;;;;;;;13.38;100.00;97182.22;5063965;28;20032;-79
2022/10/18 05:01:06;;;;;;;12.03;6.17;;;;;;;13.49;100.00;97188.22;5062763;28;20032;-79
2022/10/18 05:03:32;;;;;;;14.07;6.10;;;;;;;13.54;100.00;97180.66;5065735;28;20487;-79
2022/10/18 05:05:58;;;;;;;11.57;5.30;;;;;;;13.58;100.00;97182.00;5065452;28;20097;-79
2022/10/18 05:08:25;;;;;;;15.67;6.53;;;;;;;13.58;100.00;97182.00;5064325;28;20036;-79
2022/10/18 05:10:51;;;;;;;11.33;6.17;;;;;;;13.59;100.00;97178.38;5044881;28;20154;-79
2022/10/18 05:13:16;;;;;;;8.90;6.00;;;;;;;13.62;100.00;97178.09;5065672;28;20033;-82
2022/10/18 05:15:42;;;;;;;13.90;6.00;;;;;;;13.66;100.00;97174.13;5048307;28;20021;-79
2022/10/18 05:18:08;;;;;;;12.53;7.53;;;;;;;13.66;100.00;97180.25;5050421;28;20052;-79
2022/10/18 05:20:34;;;;;;;14.63;7.57;;;;;;;13.69;100.00;97173.81;5068675;28;20040;-78
2022/10/18 05:22:59;;;;;;;14.67;6.60;;;;;;;13.71;100.00;97186.88;5042472;28;20032;-78
2022/10/18 05:25:25;;;;;;;10.50;5.70;;;;;;;13.67;100.00;97191.66;5051175;28;20042;-79
2022/10/18 05:27:51;;;;;;;9.10;5.30;;;;;;;13.70;100.00;97180.75;5027682;28;20938;-79
2022/10/18 05:30:17;;;;;;;8.03;4.73;;;;;;;13.79;100.00;97174.56;5033354;28;20036;-79
2022/10/18 05:32:42;;;;;;;11.43;5.37;;;;;;;13.80;100.00;97170.09;5027147;28;20098;-78
2022/10/18 05:35:08;;;;;;;12.50;6.67;;;;;;;13.75;100.00;97175.84;5026133;28;20033;-80
2022/10/18 05:37:34;;;;;;;12.67;6.27;;;;;;;13.76;100.00;97174.84;5012333;28;20047;-80
2022/10/18 05:39:59;;;;;;;8.33;4.77;;;;;;;13.77;100.00;97171.22;5019972;28;20033;-79
2022/10/18 05:42:25;;;;;;;9.27;5.27;;;;;;;13.73;100.00;97169.88;5000329;28;20024;-79
2022/10/18 05:44:50;;;;;;;10.83;5.10;;;;;;;13.38;100.00;97170.78;5001212;28;20029;-79
2022/10/18 05:47:16;;;;;;;11.97;5.57;;;;;;;13.44;100.00;97165.72;4999146;28;20037;-79
2022/10/18 05:49:42;;;;;;;9.43;5.10;;;;;;;13.46;100.00;97165.56;5014937;28;20028;-79
2022/10/18 05:52:07;;;;;;;10.07;4.93;;;;;;;13.52;100.00;97172.06;5015379;28;21869;-79
2022/10/18 05:54:33;;;;;;;9.97;5.77;;;;;;;13.57;100.00;97169.78;4998959;28;20032;-79
2022/10/18 05:56:58;;;;;;;12.27;5.60;;;;;;;13.64;100.00;97162.88;5009308;28;20025;-79
2022/10/18 05:59:25;;;;;;;8.30;5.40;;;;;;;13.71;100.00;97171.84;4977473;28;20064;-79
2022/10/18 06:01:50;;;;;;;11.60;4.73;;;;;;;13.76;100.00;97166.94;4960622;28;20032;-79
2022/10/18 06:04:16;;;;;;;8.20;5.15;;;;;;;13.79;100.00;97161.34;4979985;28;21132;-79
2022/10/18 06:06:42;;;;;;;11.13;5.78;;;;;;;13.81;100.00;97166.44;4981198;28;20040;-80
2022/10/18 06:09:09;;;;;;;13.53;5.70;;;;;;;13.82;100.00;97163.66;4987308;28;20050;-79
2022/10/18 06:11:36;;;;;;;11.60;5.70;;;;;;;13.83;100.00;97165.31;4989144;28;20752;-79
2022/10/18 06:14:02;;;;;;;9.97;5.00;;;;;;;13.85;100.00;97175.75;4975657;28;20145;-79
2022/10/18 06:16:27;;;;;;;12.23;6.30;;;;;;;13.82;100.00;97182.19;4979421;28;21387;-79
2022/10/18 06:18:55;;;;;;;9.80;4.90;;;;;;;13.82;100.00;97179.53;4957639;28;20047;-79
2022/10/18 06:21:23;;;;;;;9.77;5.17;;;;;;;13.86;100.00;97177.41;4957461;28;20037;-79
2022/10/18 06:23:55;;;;;;;8.95;4.95;;;;;;;13.86;100.00;97183.50;4971971;28;20036;-79
2022/10/18 06:26:21;;;;;;;10.95;4.78;;;;;;;13.80;100.00;97181.50;4988347;28;20433;-79
2022/10/18 06:28:47;;;;;;;8.63;5.13;;;;;;;13.56;100.00;97187.44;5008633;28;20037;-79
2022/10/18 06:31:13;;;;;;;12.32;6.22;;;;;;;13.54;100.00;97192.03;5048509;28;20044;-80
2022/10/18 06:33:39;;;;;;;17.77;6.97;;;;;;;13.59;100.00;97195.06;5027907;28;20036;-80
2022/10/18 06:36:16;;;;;;;13.37;6.77;;;;;;;13.68;100.00;97191.50;5021910;28;20028;-79
2022/10/18 06:38:47;;;;;;;11.50;6.37;;;;;;;13.75;100.00;97189.06;4994631;28;20032;-80
2022/10/18 06:41:13;;;;;;;12.40;6.23;;;;;;;13.83;100.00;97194.41;5008786;28;20127;-79
2022/10/18 06:43:40;;;;;;;12.45;7.13;;;;;;;13.88;100.00;97194.78;5060039;28;20032;-79
2022/10/18 06:46:07;;;;;;;13.43;6.88;;;;;;;13.90;100.00;97202.53;5067189;28;20024;-79
2022/10/18 06:48:37;;;;;;;12.30;6.40;;;;;;;13.94;100.00;97200.41;5064359;28;20032;-79
2022/10/18 06:51:04;;;;;;;9.97;5.30;;;;;;;13.96;100.00;97201.91;5072714;28;21021;-80
2022/10/18 06:53:33;;;;;;;13.00;5.57;;;;;;;14.07;100.00;97198.16;5048075;28;20028;-79
2022/10/18 06:56:01;;;;;;;9.45;5.13;;;;;;;14.22;100.00;97207.19;5049169;28;20033;-79
2022/10/18 06:58:27;;;;;;;12.03;4.97;;;;;;;14.42;100.00;97197.19;5066354;28;20093;-79
2022/10/18 07:00:53;;;;;;;13.73;4.95;;;;;;;14.99;100.00;97189.41;5053086;28;20105;-79
2022/10/18 07:03:20;;;;;;;9.73;5.00;;;;;;;15.59;100.00;97172.34;5064159;28;20044;-81
2022/10/18 07:05:48;;;;;;;8.27;5.03;;;;;;;16.16;100.00;97174.94;5051150;28;20044;-79
2022/10/18 07:08:16;;;;;;;10.27;4.60;;;;;;;16.67;100.00;97170.03;5016285;28;20033;-79
2022/10/18 07:10:51;;;;;;;9.23;4.38;;;;;;;16.92;100.00;97159.28;5013465;28;20056;-80
2022/10/18 07:13:17;;;;;;;9.52;4.50;;;;;;;17.18;100.00;97151.78;5012137;28;20051;-79
2022/10/18 07:15:43;;;;;;;15.13;4.60;;;;;;;17.41;100.00;97159.75;5009684;28;20067;-79
2022/10/18 07:18:09;;;;;;;9.15;4.00;;;;;;;17.68;100.00;97153.03;5026103;28;20096;-80
2022/10/18 07:20:36;;;;;;;8.30;4.00;;;;;;;17.80;100.00;97149.94;5024240;28;20457;-80
2022/10/18 07:23:01;;;;;;;15.38;4.93;;;;;;;18.19;100.00;97148.84;5022993;28;20059;-79
2022/10/18 07:25:28;;;;;;;7.88;3.55;;;;;;;18.24;100.00;97157.09;4996584;28;20029;-80
2022/10/18 07:27:54;;;;;;;7.65;4.07;;;;;;;18.50;100.00;97162.75;4934927;28;20035;-79
2022/10/18 07:30:20;;;;;;;10.65;4.18;;;;;;;18.47;100.00;97157.81;4924700;28;20076;-79
2022/10/18 07:32:46;;;;;;;9.80;4.15;;;;;;;18.80;100.00;97157.41;4954029;28;20059;-79
2022/10/18 07:35:11;;;;;;;7.90;3.90;;;;;;;19.02;100.00;97151.09;4975772;28;20726;-79
2022/10/18 07:37:37;;;;;;;6.50;3.38;;;;;;;19.14;100.00;97150.56;4997848;28;20033;-80
2022/10/18 07:40:05;;;;;;;6.80;3.92;;;;;;;19.50;100.00;97153.16;4976440;28;20128;-79
2022/10/18 07:42:34;;;;;;;7.80;3.72;;;;;;;19.88;100.00;97153.66;4995394;28;20029;-79
2022/10/18 07:45:00;;;;;;;8.90;3.88;;;;;;;20.09;100.00;97147.44;5001041;28;20402;-79
2022/10/18 07:47:26;;;;;;;10.00;3.30;;;;;;;20.46;100.00;97148.84;5005984;28;20029;-79
2022/10/18 07:49:52;;;;;;;8.38;2.83;;;;;;;20.79;100.00;97147.31;4966571;28;20025;-79
2022/10/18 07:52:18;;;;;;;8.02;3.38;;;;;;;20.90;100.00;97142.22;4960225;28;20062;-79
2022/10/18 07:54:43;;;;;;;4.68;2.80;;;;;;;21.74;100.00;97135.53;4940097;28;20047;-78
2022/10/18 07:57:09;;;;;;;9.88;3.10;;;;;;;21.29;100.00;97137.94;5021171;28;20503;-79
2022/10/18 07:59:35;;;;;;;6.07;3.17;;;;;;;20.68;100.00;97140.72;5038924;28;20044;-79
2022/10/18 08:02:01;;;;;;;7.63;3.60;;;;;;;20.34;100.00;97150.44;5023922;28;20479;-79
2022/10/18 08:04:26;;;;;;;5.97;3.15;;;;;;;19.97;100.00;97144.47;5036493;28;20056;-79
2022/10/18 08:06:52;;;;;;;8.82;3.35;;;;;;;19.98;100.00;97151.44;5033620;28;20029;-78
2022/10/18 08:09:19;;;;;;;8.23;3.28;;;;;;;20.14;100.00;97144.16;5046074;28;20077;-78
2022/10/18 08:11:44;;;;;;;7.88;3.47;;;;;;;20.27;100.00;97140.75;5064529;28;20071;-79
2022/10/18 08:14:10;;;;;;;11.70;3.78;;;;;;;20.81;100.00;97134.59;5066455;28;20135;-79
2022/10/18 08:16:36;;;;;;;6.55;3.38;;;;;;;20.09;100.00;97142.09;5047537;28;20072;-78
2022/10/18 08:19:01;;;;;;;6.70;2.50;;;;;;;20.11;100.00;97139.22;5029416;28;20114;-79
2022/10/18 08:21:27;;;;;;;6.00;3.13;;;;;;;19.72;100.00;97148.63;4975581;28;20048;-80
2022/10/18 08:23:53;;;;;;;10.27;3.20;;;;;;;19.85;100.00;97146.06;4964939;28;20040;-78
2022/10/18 08:26:20;;;;;;;5.35;3.05;;;;;;;19.93;100.00;97145.06;4972930;28;21343;-80
2022/10/18 08:28:47;;;;;;;7.45;3.08;;;;;;;20.00;100.00;97148.59;4916192;28;20032;-78
2022/10/18 08:31:17;;;;;;;6.00;3.35;;;;;;;20.38;100.00;97151.66;4925119;28;20101;-80
2022/10/18 08:33:44;;;;;;;5.28;2.70;;;;;;;20.43;100.00;97154.59;4926409;28;20032;-78
2022/10/18 08:36:12;;;;;;;8.48;2.95;;;;;;;20.89;100.00;97145.94;4929330;28;20181;-80
2022/10/18 08:38:39;;;;;;;7.13;2.35;;;;;;;20.93;100.00;97152.53;4918104;28;20160;-79
2022/10/18 08:41:14;;;;;;;6.28;2.72;;;;;;;20.70;100.00;97152.88;4934155;28;20202;-79
2022/10/18 08:43:46;;;;;;;8.90;3.25;;;;;;;20.60;100.00;97155.09;4910988;28;20044;-80
2022/10/18 08:46:13;;;;;;;7.10;3.38;;;;;;;21.22;100.00;97153.19;4969318;28;20032;-78
2022/10/18 08:48:43;;;;;;;7.18;2.78;;;;;;;21.06;100.00;97150.88;5000408;28;20115;-79
2022/10/18 08:51:34;;;;;;;7.63;3.03;;;;;;;21.37;100.00;97142.34;5026734;28;20566;-79
2022/10/18 08:54:13;;;;;;;4.30;2.83;;;;;;;20.57;100.00;97150.16;5027027;28;20048;-79
2022/10/18 08:56:44;;;;;;;5.38;2.60;;;;;;;20.61;100.00;97161.25;5031447;28;21610;-78
2022/10/18 08:59:11;;;;;;;6.38;2.50;;;;;;;20.95;100.00;97152.31;5064522;28;20531;-78
2022/10/18 09:02:03;;;;;;;9.45;2.75;;;;;;;20.72;100.00;97152.66;5046534;28;20024;-80
2022/10/18 09:04:41;;;;;;;6.97;2.58;;;;;;;20.88;100.00;97156.81;5052285;28;20033;-79
2022/10/18 09:07:25;;;;;;;4.60;2.80;;;;;;;21.62;100.00;97150.56;5028641;28;20032;-79
2022/10/18 09:10:15;;;;;;;8.73;2.70;;;;;;;22.22;100.00;97145.13;5025732;28;20042;-79
2022/10/18 09:12:56;;;;;;;7.53;3.00;;;;;;;22.87;100.00;97147.75;5026469;28;20496;-79
2022/10/18 09:15:21;;;;;;;10.15;2.97;;;;;;;23.67;100.00;97148.84;5023767;28;20120;-80
2022/10/18 09:18:02;;;;;;;10.00;2.95;;;;;;;24.03;100.00;97141.13;5027002;28;20032;-78
2022/10/18 09:20:51;;;;;;;6.18;2.42;;;;;;;23.72;100.00;97146.38;5030471;28;22174;-79
2022/10/18 09:23:39;;;;;;;7.28;2.88;;;;;;;23.91;100.00;97141.03;5029033;28;20037;-79
2022/10/18 09:26:19;;;;;;;5.68;2.45;;;;;;;24.59;100.00;97149.00;5029375;28;20024;-79
2022/10/18 09:29:15;;;;;;;11.23;2.88;;;;;;;24.34;100.00;97157.09;4997613;28;20087;-78
2022/10/18 09:32:18;;;;;;;9.43;3.33;;;;;;;23.81;100.00;97163.03;4980036;28;20558;-79
2022/10/18 09:34:52;;;;;;;5.88;2.72;;;;;;;23.98;100.00;97152.56;5003998;28;20032;-79
2022/10/18 09:37:20;;;;;;;15.55;3.33;;;;;;;24.71;100.00;97151.75;5027946;28;20064;-79
2022/10/18 09:39:49;;;;;;;7.40;2.92;;;;;;;24.22;100.00;97156.22;5031361;28;20090;-79
2022/10/18 09:42:27;;;;;;;5.20;2.65;;;;;;;24.18;100.00;97158.53;5012900;28;20053;-80
2022/10/18 09:44:58;;;;;;;5.70;2.60;;;;;;;24.44;100.00;97152.06;5032789;28;20047;-79
2022/10/18 09:47:44;;;;;;;8.20;2.90;;;;;;;23.69;100.00;97146.81;5031416;28;20391;-80
2022/10/18 09:50:40;;;;;;;7.95;2.70;;;;;;;24.18;100.00;97149.66;5030405;28;20028;-79
2022/10/18 09:53:16;;;;;;;8.82;3.28;;;;;;;24.62;100.00;97145.06;5010375;28;20043;-79
2022/10/18 09:56:05;;;;;;;6.70;2.50;;;;;;;24.68;100.00;97146.81;5006255;28;20040;-79
2022/10/18 09:58:51;;;;;;;8.15;2.28;;;;;;;25.09;100.00;97146.06;5040397;28;20022;-79
2022/10/18 10:01:37;;;;;;;4.95;2.60;;;;;;;25.26;100.00;97143.56;5050360;28;20044;-79
2022/10/18 10:04:03;;;;;;;7.15;2.72;;;;;;;24.92;99.06;97143.19;5046223;28;20044;-79
2022/10/18 10:06:31;;;;;;;8.70;2.60;;;;;;;24.50;100.00;97144.16;5013471;28;20062;-80
2022/10/18 10:09:06;;;;;;;6.03;2.40;;;;;;;24.83;100.00;97141.03;5006367;28;20032;-79
2022/10/18 10:11:46;;;;;;;8.77;2.60;;;;;;;24.84;100.00;97148.06;5010899;28;20047;-80
2022/10/18 10:14:21;;;;;;;6.53;3.05;;;;;;;24.76;100.00;97148.38;5013284;28;20879;-79
2022/10/18 10:16:51;;;;;;;5.75;2.45;;;;;;;23.95;100.00;97156.50;5000851;28;20075;-78
2022/10/18 10:19:27;;;;;;;5.38;2.60;;;;;;;23.87;100.00;97150.56;5025678;28;20031;-78
2022/10/18 10:22:06;;;;;;;5.22;2.30;;;;;;;23.68;100.00;97147.88;4991650;28;20073;-79
2022/10/18 10:24:51;;;;;;;5.13;2.30;;;;;;;24.86;100.00;97144.09;4990974;28;20040;-77
2022/10/18 10:27:23;;;;;;;6.63;2.42;;;;;;;25.21;100.00;97146.13;5011372;28;20036;-77
2022/10/18 10:29:55;;;;;;;7.60;2.65;;;;;;;25.26;100.00;97138.19;5011419;28;20040;-78
2022/10/18 10:32:24;;;;;;;6.75;2.75;;;;;;;24.76;100.00;97146.50;4995346;28;20036;-79
2022/10/18 10:34:50;;;;;;;7.65;2.30;;;;;;;24.51;100.00;97143.91;5053831;28;20033;-79
2022/10/18 10:37:21;;;;;;;4.75;2.38;;;;;;;24.61;100.00;97152.28;5049488;28;20055;-79
2022/10/18 10:40:17;;;;;;;5.93;2.22;;;;;;;25.15;100.00;97138.94;5012317;28;20044;-79
2022/10/18 10:43:00;;;;;;;6.93;2.42;;;;;;;25.10;99.65;97145.00;4998513;28;20067;-79
2022/10/18 10:45:31;;;;;;;;;;;;;;;24.86;100.00;97154.03;4983540;28;20043;-79
2022/10/18 10:48:24;;;;;;;6.15;2.58;;;;;;;25.16;99.47;97152.19;4966324;28;20291;-79
2022/10/18 10:50:56;;;;;;;5.63;2.58;;;;;;;25.36;100.00;97143.00;4981903;28;20047;-79
2022/10/18 10:53:29;;;;;;;4.47;2.38;;;;;;;25.17;100.00;97144.94;4961928;28;21294;-79
2022/10/18 10:55:57;;;;;;;6.82;2.55;;;;;;;23.95;100.00;97158.38;4899924;28;20036;-79
2022/10/18 10:58:26;;;;;;;5.55;2.22;;;;;;;23.76;100.00;97150.25;4905438;28;20039;-79
2022/10/18 11:00:54;;;;;;;5.32;2.63;;;;;;;23.83;100.00;97150.19;4917516;28;21342;-79
2022/10/18 11:03:22;;;;;;;9.40;2.83;;;;;;;24.13;100.00;97149.50;4895754;28;20550;-79
2022/10/18 11:05:54;;;;;;;6.85;2.60;;;;;;;24.22;100.00;97154.34;4906678;28;20060;-80
2022/10/18 11:08:26;;;;;;;5.57;2.53;;;;;;;24.25;100.00;97150.41;4919161;28;20057;-80
2022/10/18 11:11:10;;;;;;;7.38;2.75;;;;;;;25.11;100.00;97141.28;4976132;28;20154;-79
2022/10/18 11:13:46;;;;;;;8.93;2.83;;;;;;;25.55;100.00;97139.19;4973220;28;20128;-79
2022/10/18 11:16:44;;;;;;;6.20;2.83;;;;;;;24.94;100.00;97134.88;4993457;28;20067;-79
2022/10/18 11:19:39;;;;;;;7.80;2.95;;;;;;;24.00;100.00;97147.75;4947318;28;20049;-78
2022/10/18 11:22:11;;;;;;;5.72;2.47;;;;;;;23.11;100.00;97143.53;4971518;28;20675;-79
2022/10/18 11:24:39;;;;;;;5.38;2.45;;;;;;;22.70;100.00;97142.91;4963924;28;20067;-79
2022/10/18 11:27:30;;;;;;;4.90;2.72;;;;;;;22.61;100.00;97146.84;4989811;28;20047;-79
2022/10/18 11:30:13;;;;;;;6.35;2.60;;;;;;;22.76;100.00;97139.34;4956656;28;20041;-78
2022/10/18 11:33:24;;;;;;;7.30;2.90;;;;;;;23.08;100.00;97142.09;4960743;28;21955;-78
2022/10/18 11:36:03;;;;;;;5.65;2.58;;;;;;;23.62;100.00;97143.34;4939518;28;20072;-78